createdAt,value
2023-05-22T00:01:14.917Z,220.00
2023-05-22T00:03:41.956Z,218.37
2023-05-22T00:06:10.254Z,220.80
2023-05-22T00:08:37.461Z,226.98
2023-05-22T00:11:05.116Z,222.68
2023-05-22T00:13:32.226Z,219.70
2023-05-22T00:15:59.359Z,220.63
2023-05-22T00:18:27.182Z,217.30
2023-05-22T00:20:54.398Z,219.40
2023-05-22T00:23:22.063Z,219.63
2023-05-22T00:25:50.687Z,217.53
2023-05-22T00:28:17.797Z,222.17
2023-05-22T00:30:45.929Z,219.67
2023-05-22T00:33:13.023Z,223.87
2023-05-22T00:35:40.014Z,224.33
2023-05-22T00:38:08.306Z,219.87
2023-05-22T00:40:35.404Z,216.87
2023-05-22T00:43:08.318Z,221.63
2023-05-22T00:45:35.751Z,218.20
2023-05-22T00:48:02.912Z,218.15
2023-05-22T00:50:30.076Z,219.07
2023-05-22T00:52:57.330Z,220.93
2023-05-22T00:55:24.360Z,227.60
2023-05-22T00:57:51.987Z,223.43
2023-05-22T01:00:19.711Z,218.37
2023-05-22T01:02:46.964Z,221.52
2023-05-22T01:05:18.092Z,219.67
2023-05-22T01:07:48.198Z,218.57
2023-05-22T01:10:15.233Z,218.33
2023-05-22T01:13:10.306Z,225.05
2023-05-22T01:16:04.677Z,222.33
2023-05-22T01:18:42.277Z,223.43
2023-05-22T01:21:46.331Z,220.20
2023-05-22T01:24:59.493Z,218.73
2023-05-22T01:28:12.237Z,212.07
2023-05-22T01:31:02.305Z,216.90
2023-05-22T01:33:37.439Z,225.07
2023-05-22T01:36:08.358Z,219.90
2023-05-22T01:38:36.289Z,220.20
2023-05-22T01:41:04.200Z,213.33
2023-05-22T01:43:31.284Z,214.47
2023-05-22T01:45:58.453Z,212.83
2023-05-22T01:48:25.483Z,216.80
2023-05-22T01:50:54.871Z,220.43
2023-05-22T01:53:34.132Z,217.63
2023-05-22T01:56:05.349Z,244.33
2023-05-22T01:58:53.219Z,222.70
2023-05-22T02:01:22.720Z,214.53
2023-05-22T02:03:56.516Z,217.73
2023-05-22T02:06:26.903Z,215.20
2023-05-22T02:08:55.113Z,222.37
2023-05-22T02:11:28.497Z,219.73
2023-05-22T02:13:57.194Z,217.23
2023-05-22T02:16:24.638Z,218.23
2023-05-22T02:18:54.248Z,212.93
2023-05-22T02:21:22.571Z,216.50
2023-05-22T02:23:49.746Z,216.27
2023-05-22T02:26:18.408Z,218.03
2023-05-22T02:28:45.989Z,216.37
2023-05-22T02:31:13.096Z,218.73
2023-05-22T02:33:40.813Z,215.13
2023-05-22T02:36:11.144Z,220.13
2023-05-22T02:38:38.257Z,216.43
2023-05-22T02:41:08.039Z,215.83
2023-05-22T02:43:35.103Z,216.80
2023-05-22T02:46:02.631Z,237.87
2023-05-22T02:48:29.869Z,212.30
2023-05-22T02:50:56.886Z,217.83
2023-05-22T02:53:23.897Z,221.67
2023-05-22T02:55:52.838Z,213.30
2023-05-22T02:58:21.247Z,215.30
2023-05-22T03:00:48.381Z,211.83
2023-05-22T03:03:18.112Z,217.57
2023-05-22T03:05:46.063Z,216.27
2023-05-22T03:08:15.466Z,217.63
2023-05-22T03:10:42.742Z,219.40
2023-05-22T03:13:09.859Z,213.20
2023-05-22T03:15:37.016Z,210.93
2023-05-22T03:18:11.539Z,220.80
2023-05-22T03:20:40.137Z,212.73
2023-05-22T03:23:07.416Z,216.37
2023-05-22T03:25:34.604Z,219.23
2023-05-22T03:28:02.425Z,212.07
2023-05-22T03:30:33.769Z,218.60
2023-05-22T03:33:11.872Z,219.47
2023-05-22T03:35:39.929Z,212.13
2023-05-22T03:38:06.948Z,218.27
2023-05-22T03:40:34.116Z,212.53
2023-05-22T03:43:01.191Z,214.57
2023-05-22T03:45:28.578Z,214.23
2023-05-22T03:47:55.794Z,215.33
2023-05-22T03:50:24.339Z,219.53
2023-05-22T03:52:51.378Z,220.63
2023-05-22T03:55:18.415Z,225.23
2023-05-22T03:57:45.453Z,215.30
2023-05-22T04:00:13.747Z,222.80
2023-05-22T04:02:45.306Z,217.73
2023-05-22T04:05:12.995Z,230.33
2023-05-22T04:07:40.106Z,239.10
2023-05-22T04:10:07.907Z,234.13
2023-05-22T04:12:35.096Z,231.80
2023-05-22T04:15:02.124Z,221.97
2023-05-22T04:17:34.236Z,220.93
2023-05-22T04:20:01.479Z,222.97
2023-05-22T04:22:30.861Z,224.53
2023-05-22T04:24:58.246Z,219.33
2023-05-22T04:27:26.470Z,219.60
2023-05-22T04:29:53.703Z,228.43
2023-05-22T04:32:23.707Z,219.45
2023-05-22T04:34:51.158Z,221.32
2023-05-22T04:37:20.344Z,214.70
2023-05-22T04:39:47.895Z,224.73
2023-05-22T04:42:16.048Z,227.82
2023-05-22T04:44:43.747Z,223.10
2023-05-22T04:47:14.352Z,217.73
2023-05-22T04:49:45.718Z,222.13
2023-05-22T04:52:13.137Z,218.10
2023-05-22T04:54:40.182Z,219.25
2023-05-22T04:57:07.327Z,228.77
2023-05-22T04:59:41.378Z,221.85
2023-05-22T05:02:09.445Z,225.43
2023-05-22T05:04:36.560Z,221.43
2023-05-22T05:07:05.067Z,221.98
2023-05-22T05:09:32.707Z,220.95
2023-05-22T05:12:02.820Z,224.48
2023-05-22T05:14:30.063Z,222.65
2023-05-22T05:16:58.662Z,221.48
2023-05-22T05:19:26.277Z,231.15
2023-05-22T05:21:53.491Z,230.82
2023-05-22T05:24:21.932Z,225.18
2023-05-22T05:26:51.167Z,227.85
2023-05-22T05:29:19.931Z,224.25
2023-05-22T05:32:08.096Z,228.68
2023-05-22T05:34:47.934Z,226.43
2023-05-22T05:37:24.855Z,224.02
2023-05-22T05:39:53.412Z,228.35
2023-05-22T05:42:20.813Z,225.32
2023-05-22T05:44:49.094Z,223.93
2023-05-22T05:47:17.945Z,228.13
2023-05-22T05:49:45.034Z,232.57
2023-05-22T05:52:14.828Z,228.98
2023-05-22T05:54:46.635Z,233.18
2023-05-22T05:57:16.545Z,228.90
2023-05-22T05:59:43.600Z,228.88
2023-05-22T06:02:27.117Z,226.57
2023-05-22T06:04:59.062Z,232.45
2023-05-22T06:07:28.778Z,233.57
2023-05-22T06:09:55.928Z,227.15
2023-05-22T06:12:37.913Z,222.57
2023-05-22T06:15:07.415Z,229.85
2023-05-22T06:17:35.671Z,228.02
2023-05-22T06:20:06.934Z,223.32
2023-05-22T06:22:34.386Z,230.35
2023-05-22T06:25:01.530Z,228.90
2023-05-22T06:27:30.959Z,231.35
2023-05-22T06:29:58.088Z,231.85
2023-05-22T06:32:29.737Z,228.90
2023-05-22T06:34:56.889Z,225.25
2023-05-22T06:37:24.932Z,231.27
2023-05-22T06:39:53.126Z,230.50
2023-05-22T06:42:30.635Z,230.43
2023-05-22T06:45:17.947Z,227.90
2023-05-22T06:48:12.308Z,229.15
2023-05-22T06:50:51.514Z,233.48
2023-05-22T06:53:18.633Z,228.85
2023-05-22T06:55:46.540Z,234.40
2023-05-22T06:58:22.805Z,231.95
2023-05-22T07:00:51.018Z,225.18
2023-05-22T07:03:27.224Z,232.45
2023-05-22T07:06:20.139Z,233.57
2023-05-22T07:08:47.886Z,230.68
2023-05-22T07:11:14.986Z,235.15
2023-05-22T07:13:42.124Z,236.85
2023-05-22T07:16:09.287Z,234.60
2023-05-22T07:18:36.504Z,234.38
2023-05-22T07:21:03.493Z,231.95
2023-05-22T07:23:30.685Z,236.38
2023-05-22T07:25:57.781Z,230.43
2023-05-22T07:28:31.061Z,230.43
2023-05-22T07:31:07.455Z,236.27
2023-05-22T07:33:34.540Z,230.82
2023-05-22T07:36:01.829Z,232.80
2023-05-22T07:38:28.964Z,233.70
2023-05-22T07:41:00.239Z,233.80
2023-05-22T07:43:28.614Z,230.63
2023-05-22T07:45:57.376Z,236.10
2023-05-22T07:48:29.550Z,232.65
2023-05-22T07:50:56.674Z,238.65
2023-05-22T07:53:23.813Z,238.18
2023-05-22T07:55:53.561Z,234.32
2023-05-22T07:58:21.064Z,238.88
2023-05-22T08:00:49.944Z,236.07
2023-05-22T08:03:17.715Z,236.07
2023-05-22T08:05:45.547Z,236.27
2023-05-22T08:08:12.790Z,231.63
2023-05-22T08:13:10.450Z,235.52
2023-05-22T08:15:37.457Z,237.10
2023-05-22T08:18:04.551Z,242.10
2023-05-22T08:20:32.309Z,240.45
2023-05-22T08:22:59.387Z,235.13
2023-05-22T08:25:26.417Z,236.80
2023-05-22T08:27:53.459Z,247.75
2023-05-22T08:30:20.647Z,239.65
2023-05-22T08:32:47.731Z,244.05
2023-05-22T08:35:14.860Z,244.13
2023-05-22T08:37:41.908Z,242.23
2023-05-22T08:40:13.087Z,242.45
2023-05-22T08:42:40.238Z,250.43
2023-05-22T08:45:08.028Z,245.65
2023-05-22T08:47:37.438Z,245.13
2023-05-22T08:50:05.380Z,247.73
2023-05-22T08:52:48.320Z,249.25
2023-05-22T08:55:15.915Z,248.57
2023-05-22T08:57:44.022Z,233.63
2023-05-22T09:00:11.797Z,231.65
2023-05-22T09:02:39.558Z,252.95
2023-05-22T09:05:08.117Z,239.20
2023-05-22T09:07:40.789Z,240.18
2023-05-22T09:10:08.590Z,246.90
2023-05-22T09:12:35.981Z,245.00
2023-05-22T09:15:11.249Z,238.35
2023-05-22T09:17:41.546Z,234.43
2023-05-22T09:20:13.403Z,235.32
2023-05-22T09:22:40.673Z,238.57
2023-05-22T09:25:08.353Z,241.35
2023-05-22T09:27:35.724Z,243.73
2023-05-22T09:30:02.790Z,245.23
2023-05-22T09:32:31.232Z,237.98
2023-05-22T09:35:05.204Z,244.43
2023-05-22T09:37:37.069Z,239.60
2023-05-22T09:40:11.095Z,234.88
2023-05-22T09:42:38.161Z,225.30
2023-05-22T09:45:07.516Z,225.52
2023-05-22T09:47:35.325Z,229.85
2023-05-22T09:50:07.496Z,224.77
2023-05-22T09:52:37.596Z,223.15
2023-05-22T09:55:07.417Z,216.10
2023-05-22T09:57:44.983Z,226.00
2023-05-22T10:00:15.591Z,227.27
2023-05-22T10:02:46.664Z,241.95
2023-05-22T10:05:21.450Z,223.65
2023-05-22T10:07:57.245Z,225.90
2023-05-22T10:10:25.963Z,238.50
2023-05-22T10:12:56.937Z,236.02
2023-05-22T10:15:24.597Z,228.15
2023-05-22T10:17:52.063Z,235.75
2023-05-22T10:20:20.317Z,238.02
2023-05-22T10:22:51.053Z,241.20
2023-05-22T10:25:18.502Z,230.23
2023-05-22T10:27:46.224Z,236.93
2023-05-22T10:30:29.553Z,242.82
2023-05-22T10:33:36.850Z,228.45
2023-05-22T10:36:22.541Z,235.82
2023-05-22T10:39:35.307Z,237.82
2023-05-22T10:42:02.542Z,230.50
2023-05-22T10:44:29.673Z,235.30
2023-05-22T10:46:56.762Z,238.52
2023-05-22T10:49:24.303Z,237.13
2023-05-22T10:51:57.197Z,235.82
2023-05-22T10:54:44.592Z,237.68
2023-05-22T10:57:16.511Z,230.90
2023-05-22T10:59:47.343Z,228.05
2023-05-22T11:02:29.970Z,236.05
2023-05-22T11:05:22.847Z,225.75
2023-05-22T11:07:49.958Z,218.88
2023-05-22T11:10:27.339Z,226.02
2023-05-22T11:13:12.130Z,225.57
2023-05-22T11:15:45.783Z,225.85
2023-05-22T11:18:14.539Z,211.45
2023-05-22T11:20:42.095Z,222.15
2023-05-22T11:23:11.693Z,221.82
2023-05-22T11:25:41.551Z,213.25
2023-05-22T11:28:10.714Z,217.65
2023-05-22T11:30:38.342Z,216.85
2023-05-22T11:33:06.652Z,220.88
2023-05-22T11:35:34.090Z,209.75
2023-05-22T11:38:06.747Z,196.98
2023-05-22T11:40:33.999Z,208.63
2023-05-22T11:43:00.982Z,176.65
2023-05-22T11:45:28.046Z,182.48
2023-05-22T11:47:55.705Z,180.60
2023-05-22T11:50:43.687Z,184.07
2023-05-22T11:53:10.479Z,180.93
2023-05-22T11:55:37.528Z,184.90
2023-05-22T11:58:04.660Z,192.65
2023-05-22T12:00:32.545Z,189.02
2023-05-22T12:02:59.812Z,187.95
2023-05-22T12:05:27.141Z,190.10
2023-05-22T12:07:54.340Z,196.45
2023-05-22T12:10:21.491Z,195.05
2023-05-22T12:12:48.666Z,194.40
2023-05-22T12:15:20.596Z,193.23
2023-05-22T12:17:47.733Z,189.65
2023-05-22T12:20:14.873Z,185.07
2023-05-22T12:22:43.467Z,171.27
2023-05-22T12:25:17.650Z,166.48
2023-05-22T12:27:46.101Z,176.27
2023-05-22T12:30:14.252Z,162.20
2023-05-22T12:32:41.800Z,169.43
2023-05-22T12:35:16.764Z,172.65
2023-05-22T12:37:51.671Z,159.02
2023-05-22T12:40:18.785Z,154.35
2023-05-22T12:42:45.912Z,146.23
2023-05-22T12:45:13.868Z,148.50
2023-05-22T12:47:41.220Z,167.52
2023-05-22T12:50:09.192Z,165.07
2023-05-22T12:52:36.435Z,174.05
2023-05-22T12:55:03.809Z,175.13
2023-05-22T12:57:31.011Z,189.27
2023-05-22T12:59:58.045Z,173.52
2023-05-22T13:02:25.117Z,173.35
2023-05-22T13:04:52.291Z,170.68
2023-05-22T13:07:19.496Z,181.90
2023-05-22T13:09:46.437Z,256.00
2023-05-22T13:12:13.477Z,185.05
2023-05-22T13:14:40.876Z,179.80
2023-05-22T13:17:08.260Z,191.48
2023-05-22T13:19:35.457Z,194.07
2023-05-22T13:22:02.778Z,191.57
2023-05-22T13:24:30.294Z,174.02
2023-05-22T13:26:57.316Z,189.90
2023-05-22T13:29:24.370Z,194.55
2023-05-22T13:31:51.527Z,178.77
2023-05-22T13:34:18.806Z,174.05
2023-05-22T13:36:46.531Z,181.23
2023-05-22T13:39:13.627Z,191.00
2023-05-22T13:41:40.801Z,180.90
2023-05-22T13:44:08.019Z,175.25
2023-05-22T13:46:35.146Z,166.95
2023-05-22T13:49:02.198Z,181.07
2023-05-22T13:51:29.329Z,206.02
2023-05-22T13:53:56.288Z,195.18
2023-05-22T13:56:23.881Z,202.70
2023-05-22T13:58:50.880Z,207.63
2023-05-22T14:01:17.894Z,197.65
2023-05-22T14:03:45.052Z,200.98
2023-05-22T14:06:12.283Z,204.55
2023-05-22T14:08:39.290Z,201.32
2023-05-22T14:11:06.398Z,198.00
2023-05-22T14:13:33.443Z,202.20
2023-05-22T14:16:00.469Z,219.45
2023-05-22T14:18:27.601Z,213.05
2023-05-22T14:20:54.654Z,206.38
2023-05-22T14:23:21.671Z,217.63
2023-05-22T14:25:48.785Z,212.43
2023-05-22T14:28:16.440Z,215.80
2023-05-22T14:30:43.572Z,227.18
2023-05-22T14:33:11.429Z,219.60
2023-05-22T14:35:38.764Z,203.45
2023-05-22T14:38:05.927Z,209.65
2023-05-22T14:40:32.983Z,207.60
2023-05-22T14:43:00.024Z,211.77
2023-05-22T14:45:27.072Z,221.77
2023-05-22T14:47:54.488Z,211.60
2023-05-22T14:50:21.911Z,218.73
2023-05-22T14:52:49.822Z,215.35
2023-05-22T14:55:17.894Z,207.25
2023-05-22T14:57:45.081Z,216.20
2023-05-22T15:00:13.075Z,215.18
2023-05-22T15:02:40.858Z,209.57
2023-05-22T15:05:08.668Z,204.15
2023-05-22T15:07:44.004Z,219.70
2023-05-22T15:10:12.580Z,214.10
2023-05-22T15:12:39.661Z,210.20
2023-05-22T15:15:07.741Z,212.23
2023-05-22T15:17:34.893Z,213.35
2023-05-22T15:20:02.023Z,213.07
2023-05-22T15:22:29.079Z,213.20
2023-05-22T15:25:12.303Z,211.32
2023-05-22T15:27:39.949Z,201.95
2023-05-22T15:30:09.754Z,199.52
2023-05-22T15:32:37.463Z,212.05
2023-05-22T15:35:05.997Z,211.15
2023-05-22T15:37:34.219Z,214.57
2023-05-22T15:40:03.704Z,211.55
2023-05-22T15:42:31.106Z,204.68
2023-05-22T15:45:00.833Z,223.25
2023-05-22T15:47:29.268Z,208.75
2023-05-22T15:49:56.344Z,218.05
2023-05-22T15:52:24.497Z,218.00
2023-05-22T15:54:51.704Z,219.55
2023-05-22T15:57:18.746Z,221.13
2023-05-22T15:59:47.427Z,244.48
2023-05-22T16:02:14.807Z,230.95
2023-05-22T16:04:42.023Z,223.85
2023-05-22T16:07:09.174Z,220.55
2023-05-22T16:09:36.395Z,241.90
2023-05-22T16:12:04.194Z,238.27
2023-05-22T16:14:31.463Z,231.88
2023-05-22T16:16:58.413Z,247.52
2023-05-22T16:19:25.602Z,236.93
2023-05-22T16:21:53.767Z,238.25
2023-05-22T16:24:20.793Z,234.73
2023-05-22T16:26:48.054Z,241.35
2023-05-22T16:29:15.161Z,263.67
2023-05-22T16:31:42.344Z,240.70
2023-05-22T16:34:09.416Z,240.43
2023-05-22T16:36:36.638Z,237.98
2023-05-22T16:39:03.757Z,244.52
2023-05-22T16:41:30.911Z,240.95
2023-05-22T16:43:57.905Z,235.13
2023-05-22T16:46:25.032Z,234.90
2023-05-22T16:48:52.063Z,233.57
2023-05-22T16:51:19.134Z,241.23
2023-05-22T16:53:46.779Z,241.63
2023-05-22T16:56:14.601Z,234.45
2023-05-22T16:58:41.740Z,244.95
2023-05-22T17:01:09.132Z,253.98
2023-05-22T17:03:37.505Z,244.32
2023-05-22T17:06:05.394Z,243.85
2023-05-22T17:08:32.463Z,242.45
2023-05-22T17:10:59.447Z,241.77
2023-05-22T17:13:26.413Z,244.13
2023-05-22T17:15:53.409Z,239.95
2023-05-22T17:18:20.975Z,242.10
2023-05-22T17:20:54.039Z,246.45
2023-05-22T17:23:21.383Z,242.85
2023-05-22T17:25:48.879Z,241.45
2023-05-22T17:28:16.525Z,235.65
2023-05-22T17:30:45.172Z,252.68
2023-05-22T17:33:12.857Z,253.50
2023-05-22T17:35:40.028Z,242.18
2023-05-22T17:38:08.532Z,239.45
2023-05-22T17:40:43.898Z,242.45
2023-05-22T17:43:12.268Z,238.07
2023-05-22T17:45:40.128Z,248.23
2023-05-22T17:48:08.153Z,247.32
2023-05-22T17:50:35.388Z,244.85
2023-05-22T17:53:02.526Z,243.35
2023-05-22T17:55:29.616Z,249.55
2023-05-22T17:57:56.821Z,249.60
2023-05-22T18:00:24.014Z,247.90
2023-05-22T18:02:51.129Z,241.05
2023-05-22T18:05:18.328Z,240.50
2023-05-22T18:07:45.398Z,242.10
2023-05-22T18:10:12.517Z,245.55
2023-05-22T18:12:39.438Z,242.02
2023-05-22T18:15:09.578Z,247.57
2023-05-22T18:17:36.641Z,253.18
2023-05-22T18:20:06.882Z,251.40
2023-05-22T18:22:35.141Z,245.50
2023-05-22T18:25:02.463Z,249.90
2023-05-22T18:27:29.521Z,244.18
2023-05-22T18:29:56.562Z,242.35
2023-05-22T18:32:24.001Z,238.15
2023-05-22T18:34:52.112Z,236.35
2023-05-22T18:37:19.600Z,246.95
2023-05-22T18:39:47.427Z,243.00
2023-05-22T18:42:15.069Z,279.17
2023-05-22T18:44:42.315Z,238.38
2023-05-22T18:47:09.523Z,239.68
2023-05-22T18:49:36.559Z,236.60
2023-05-22T18:52:03.832Z,240.13
2023-05-22T18:54:30.925Z,253.82
2023-05-22T18:56:57.905Z,228.23
2023-05-22T18:59:24.967Z,231.27
2023-05-22T19:01:51.981Z,233.63
2023-05-22T19:04:19.113Z,230.60
2023-05-22T19:06:46.372Z,239.77
2023-05-22T19:09:13.622Z,233.80
2023-05-22T19:11:40.614Z,237.55
2023-05-22T19:14:07.746Z,240.07
2023-05-22T19:16:34.812Z,232.55
2023-05-22T19:19:02.063Z,280.42
2023-05-22T19:21:29.139Z,236.98
2023-05-22T19:23:56.167Z,233.55
2023-05-22T19:26:23.194Z,233.40
2023-05-22T19:28:50.187Z,240.52
2023-05-22T19:31:17.661Z,231.55
2023-05-22T19:33:44.768Z,236.90
2023-05-22T19:36:11.867Z,403.40
2023-05-22T19:38:38.978Z,237.32
2023-05-22T19:41:05.941Z,233.30
2023-05-22T19:43:33.011Z,343.70
2023-05-22T19:46:00.131Z,242.20
2023-05-22T19:48:27.206Z,258.77
2023-05-22T19:50:54.206Z,238.18
2023-05-22T19:53:21.412Z,231.02
2023-05-22T19:55:48.822Z,234.73
2023-05-22T19:58:16.964Z,227.77
2023-05-22T20:00:44.247Z,237.73
2023-05-22T20:03:11.813Z,229.57
2023-05-22T20:05:39.205Z,230.73
2023-05-22T20:08:07.351Z,230.38
2023-05-22T20:10:34.488Z,239.27
2023-05-22T20:13:01.544Z,234.35
2023-05-22T20:15:30.546Z,234.50
2023-05-22T20:17:58.105Z,237.63
2023-05-22T20:20:25.166Z,232.00
2023-05-22T20:22:53.755Z,230.52
2023-05-22T20:25:21.597Z,229.43
2023-05-22T20:27:48.590Z,232.60
2023-05-22T20:30:15.899Z,231.35
2023-05-22T20:32:45.629Z,229.98
2023-05-22T20:35:13.501Z,230.13
2023-05-22T20:37:41.723Z,230.98
2023-05-22T20:40:09.642Z,232.48
2023-05-22T20:42:37.906Z,233.63
2023-05-22T20:45:06.476Z,232.95
2023-05-22T20:47:38.890Z,229.82
2023-05-22T20:50:07.039Z,229.88
2023-05-22T20:52:34.330Z,231.80
2023-05-22T20:55:02.312Z,227.82
2023-05-22T20:57:29.374Z,230.15
2023-05-22T20:59:57.386Z,228.63
2023-05-22T21:02:24.599Z,227.48
2023-05-22T21:04:51.667Z,230.77
2023-05-22T21:07:19.648Z,227.52
2023-05-22T21:09:46.774Z,230.70
2023-05-22T21:12:13.787Z,225.90
2023-05-22T21:14:40.955Z,230.27
2023-05-22T21:17:07.983Z,227.20
2023-05-22T21:19:35.149Z,225.38
2023-05-22T21:22:02.316Z,230.25
2023-05-22T21:24:31.532Z,229.57
2023-05-22T21:26:59.276Z,223.30
2023-05-22T21:29:26.428Z,228.55
2023-05-22T21:31:53.630Z,230.70
2023-05-22T21:34:20.856Z,230.50
2023-05-22T21:36:49.618Z,230.95
2023-05-22T21:39:16.719Z,222.95
2023-05-22T21:41:43.856Z,226.57
2023-05-22T21:44:10.898Z,231.57
2023-05-22T21:46:38.068Z,222.50
2023-05-22T21:49:06.126Z,225.68
2023-05-22T21:51:33.468Z,227.80
2023-05-22T21:54:00.522Z,232.80
2023-05-22T21:56:27.624Z,230.48
2023-05-22T21:58:54.609Z,230.20
2023-05-22T22:01:21.884Z,229.02
2023-05-22T22:03:48.988Z,226.25
2023-05-22T22:06:16.149Z,223.70
2023-05-22T22:08:43.138Z,234.88
2023-05-22T22:11:10.124Z,224.60
2023-05-22T22:13:37.334Z,232.10
2023-05-22T22:16:04.971Z,227.05
2023-05-22T22:18:34.998Z,225.27
2023-05-22T22:21:02.429Z,240.75
2023-05-22T22:23:29.960Z,226.13
2023-05-22T22:25:57.020Z,233.05
2023-05-22T22:28:24.026Z,223.82
2023-05-22T22:30:54.879Z,227.27
2023-05-22T22:33:22.873Z,224.55
2023-05-22T22:35:50.384Z,224.85
2023-05-22T22:38:17.505Z,230.35
2023-05-22T22:40:44.591Z,223.35
2023-05-22T22:43:11.755Z,224.57
2023-05-22T22:45:40.212Z,221.80
2023-05-22T22:48:07.674Z,220.77
2023-05-22T22:50:34.747Z,219.52
2023-05-22T22:53:01.858Z,220.55
2023-05-22T22:55:29.149Z,222.30
2023-05-22T22:57:56.390Z,224.48
2023-05-22T23:00:23.697Z,222.82
2023-05-22T23:02:50.844Z,226.00
2023-05-22T23:05:20.500Z,222.77
2023-05-22T23:07:48.417Z,223.73
2023-05-22T23:10:17.030Z,218.52
2023-05-22T23:12:44.244Z,223.98
2023-05-22T23:15:13.444Z,226.77
2023-05-22T23:17:41.424Z,224.45
2023-05-22T23:20:09.800Z,225.93
2023-05-22T23:22:36.908Z,218.50
2023-05-22T23:25:04.184Z,219.35
2023-05-22T23:27:31.707Z,224.70
2023-05-22T23:29:58.830Z,220.50
2023-05-22T23:32:26.115Z,220.57
2023-05-22T23:34:53.172Z,221.38
2023-05-22T23:37:20.407Z,222.70
2023-05-22T23:39:47.860Z,221.57
2023-05-22T23:42:15.933Z,224.32
2023-05-22T23:44:43.039Z,213.85
2023-05-22T23:47:10.134Z,217.93
2023-05-22T23:49:37.135Z,219.82
2023-05-22T23:52:04.432Z,221.27
2023-05-22T23:54:31.436Z,220.82
2023-05-22T23:56:58.464Z,219.70
2023-05-22T23:59:25.531Z,221.48
